DW0026 Weather Reports


Display with metric or nautical units.
time (UTC)temp
F
wind
direction
speed
MPH
gust
MPH
rain 1hr
in
rain 24hr
in
rain mn
in
humidity
%
barometer
mb
20180722115526 61 188 0.0 0.0 0.00 0.73 0.00 93 1013.3
20180722114023 61 188 0.0 0.0 0.00 0.73 0.00 93 1013.3
20180722112520 61 188 0.0 0.0 0.00 0.73 0.00 92 1013.2
20180722111019 62 188 0.0 0.0 0.00 0.73 0.00 93 1013.2
20180722105518 62 188 0.0 0.0 0.00 0.73 0.00 93 1013.2
20180722104016 62 188 0.0 0.0 0.00 0.73 0.00 93 1013.1
20180722102515 62 188 0.0 0.0 0.00 0.73 0.00 92 1013.2
20180722101015 62 188 0.0 0.0 0.00 0.73 0.00 92 1013.1
20180722095514 62 188 0.0 0.0 0.00 0.73 0.00 93 1013.1
20180722094013 62 188 0.0 0.0 0.00 0.73 0.00 92 1012.9
20180722092511 62 188 0.0 0.0 0.00 0.73 0.00 92 1012.8
20180722091009 62 188 0.0 0.0 0.00 0.73 0.00 92 1012.7
20180722085509 63 188 0.0 0.0 0.00 0.73 0.00 92 1012.7
20180722084017 63 188 0.0 0.0 0.00 0.73 0.00 91 1012.8
20180722082508 63 188 0.0 0.0 0.00 0.73 0.00 91 1012.7
20180722081004 63 188 0.0 0.0 0.00 0.73 0.00 91 1012.7
20180722075507 63 188 0.0 0.0 0.00 0.73 0.00 90 1012.6
20180722074001 63 188 0.0 0.0 0.00 0.73 0.00 90 1012.6
20180722072459 64 188 0.0 0.0 0.00 0.73 0.00 90 1012.6
20180722070956 64 188 0.0 0.0 0.00 0.73 0.00 90 1012.5
20180722065455 64 188 0.0 0.0 0.00 0.73 0.73 90 1012.4
20180722063955 64 188 0.0 0.0 0.00 0.73 0.73 89 1012.2
20180722062452 65 188 0.0 0.0 0.00 0.73 0.73 89 1012.0
20180722060951 65 188 0.0 0.0 0.00 0.73 0.73 89 1011.9
20180722055450 65 188 0.0 0.0 0.00 0.73 0.73 89 1011.8
20180722053952 66 188 0.0 0.0 0.00 0.73 0.73 90 1011.7
20180722052448 66 188 0.0 0.0 0.00 0.73 0.73 89 1011.7
20180722050947 66 188 0.0 0.0 0.00 0.73 0.73 88 1011.8
20180722045448 66 188 0.0 0.0 0.00 0.73 0.73 87 1011.8
20180722043949 67 188 0.0 0.0 0.00 0.73 0.73 86 1011.7
20180722042445 67 188 0.0 0.0 0.00 0.73 0.73 84 1011.6
20180722040943 68 188 0.0 0.0 0.00 0.73 0.73 83 1011.3
20180722035447 68 188 0.0 0.0 0.00 0.73 0.73 82 1011.2
20180722033943 69 188 0.0 0.0 0.00 0.73 0.73 77 1011.1
20180722032440 70 188 0.0 0.0 0.00 0.73 0.73 77 1010.9
20180722030939 70 188 0.0 0.0 0.00 0.73 0.73 78 1010.9
20180722025438 71 188 0.0 0.0 0.00 0.73 0.73 75 1010.9
20180722023937 71 188 0.0 0.0 0.00 0.73 0.73 72 1010.7
20180722022437 71 188 0.0 0.0 0.00 0.73 0.73 69 1010.8
20180722020939 71 188 0.0 0.0 0.00 0.73 0.73 72 1010.7
20180722015433 70 188 0.0 0.0 0.00 0.73 0.73 80 1010.4
20180722013934 68 188 0.0 0.0 0.00 0.73 0.73 75 1010.2
20180722012431 68 188 0.0 0.0 0.00 0.73 0.73 79 1010.4
20180722010932 67 188 0.0 0.0 0.00 0.73 0.73 80 1010.2
20180722005431 67 188 0.0 0.0 0.00 0.73 0.73 80 1010.3
20180722003929 67 188 0.0 2.0 0.00 0.73 0.73 82 1010.1
20180722002428 66 188 0.0 6.0 0.08 0.73 0.73 83 1009.7
20180722000927 65 181 0.0 0.0 0.24 0.73 0.73 85 1009.8
20180721235427 64 181 0.0 0.0 0.51 0.73 0.73 84 1010.1
20180721233926 65 181 0.0 1.0 0.65 0.73 0.73 83 1010.0
20180721232426 65 182 1.0 13.0 0.64 0.65 0.65 77 1009.6
20180721230925 69 161 0.0 10.0 0.49 0.49 0.49 67 1008.9
20180721225424 73 275 0.0 8.0 0.18 0.18 0.18 54 1008.6
20180721223924 75 274 0.0 4.0 0.07 0.07 0.07 49 1007.8
20180721222421 81 276 2.0 8.0 0.01 0.01 0.01 46 1007.6
20180721220920 86 296 6.0 12.0 0.00 0.00 0.00 34 1007.7
20180721215423 88 324 5.0 15.0 0.00 0.00 0.00 31 1007.4
20180721213919 90 348 7.0 14.0 0.00 0.00 0.00 29 1007.5
20180721212417 90 253 0.0 9.0 0.00 0.00 0.00 30 1007.3
20180721210916 90 253 1.0 5.0 0.00 0.00 0.00 29 1007.6
20180721205414 88 253 0.0 0.0 0.00 0.00 0.00 32 1007.7
20180721203913 88 253 0.0 2.0 0.00 0.00 0.00 33 1008.0
20180721202411 88 253 0.0 0.0 0.00 0.00 0.00 33 1008.1
20180721200910 89 253 0.0 0.0 0.00 0.00 0.00 30 1008.2
20180721195408 89 253 0.0 3.0 0.00 0.00 0.00 31 1008.5
20180721193907 88 253 0.0 7.0 0.00 0.00 0.00 30 1008.5
20180721192404 87 253 0.0 4.0 0.00 0.00 0.00 30 1008.7
20180721190900 87 253 0.0 5.0 0.00 0.00 0.00 32 1008.8
20180721185356 87 253 0.0 5.0 0.00 0.00 0.00 33 1008.8
20180721183852 86 253 0.0 0.0 0.00 0.00 0.00 33 1009.0
20180721182350 86 253 2.0 5.0 0.00 0.00 0.00 33 1009.1
20180721180847 85 253 0.0 3.0 0.00 0.00 0.00 32 1009.2
20180721175345 84 253 1.0 5.0 0.00 0.00 0.00 32 1009.3
20180721173844 84 253 0.0 2.0 0.00 0.00 0.00 36 1009.3
20180721172335 83 253 0.0 1.0 0.00 0.00 0.00 34 1009.2
20180721170832 82 253 0.0 4.0 0.00 0.00 0.00 37 1009.4
20180721165329 81 253 0.0 0.0 0.00 0.00 0.00 39 1009.3
20180721163822 80 253 0.0 0.0 0.00 0.00 0.00 37 1009.5
20180721160816 77 253 0.0 0.0 0.00 0.00 0.00 50 1009.5
20180721155310 76 253 0.0 0.0 0.00 0.00 0.00 49 1009.7
20180721153805 75 253 0.0 0.0 0.00 0.00 0.00 52 1009.7
20180721152301 73 253 0.0 0.0 0.00 0.00 0.00 54 1009.8
20180721150757 71 253 0.0 0.0 0.00 0.00 0.00 54 1009.9
20180721145252 69 253 0.0 0.0 0.00 0.00 0.00 58 1009.9
20180721143748 66 253 0.0 0.0 0.00 0.00 0.00 63 1009.9
20180721142247 63 253 0.0 0.0 0.00 0.00 0.00 71 1009.9
20180721140742 61 253 0.0 0.0 0.00 0.00 0.00 77 1010.0
20180721135236 59 253 0.0 0.0 0.00 0.00 0.00 78 1009.6
20180721133733 59 253 0.0 0.0 0.00 0.00 0.00 79 1009.5
20180721132233 58 253 0.0 0.0 0.00 0.00 0.00 83 1009.6
20180721130729 58 253 0.0 0.0 0.00 0.00 0.00 77 1009.4
20180721125227 59 253 0.0 0.0 0.00 0.00 0.00 78 1009.4
20180721123725 58 253 0.0 0.0 0.00 0.00 0.00 75 1009.3
20180721122224 58 253 0.0 0.0 0.00 0.00 0.00 76 1009.2